createdAt,value
2022-11-09T00:00:32.707Z,99700.47
2022-11-09T00:03:02.258Z,99700.47
2022-11-09T00:05:31.611Z,99711.09
2022-11-09T00:08:00.894Z,99700.59
2022-11-09T00:10:32.815Z,99702.28
2022-11-09T00:13:02.236Z,99696.13
2022-11-09T00:15:31.580Z,99700.09
2022-11-09T00:18:02.771Z,99707.94
2022-11-09T00:20:32.792Z,99705.38
2022-11-09T00:23:02.111Z,99704.88
2022-11-09T00:25:34.099Z,99700.66
2022-11-09T00:28:03.484Z,99696.66
2022-11-09T00:30:32.933Z,99692.94
2022-11-09T00:33:02.407Z,99684.94
2022-11-09T00:35:31.742Z,99693.75
2022-11-09T00:38:01.128Z,99698.59
2022-11-09T00:40:30.673Z,99702.09
2022-11-09T00:43:02.640Z,99701.84
2022-11-09T00:45:31.951Z,99692.44
2022-11-09T00:48:01.294Z,99691.59
2022-11-09T00:50:30.645Z,99689.66
2022-11-09T00:53:00.068Z,99685.81
2022-11-09T00:55:29.721Z,99682.78
2022-11-09T00:58:01.799Z,99700.88
2022-11-09T01:00:31.299Z,99685.31
2022-11-09T01:03:00.885Z,99692.31
2022-11-09T01:05:30.255Z,99687.97
2022-11-09T01:07:59.603Z,99692.28
2022-11-09T01:10:29.334Z,99700.72
2022-11-09T01:12:58.700Z,99701.69
2022-11-09T01:15:30.619Z,99701.19
2022-11-09T01:17:59.942Z,99705.88
2022-11-09T01:20:29.264Z,99709.00
2022-11-09T01:22:58.585Z,99705.63
2022-11-09T01:25:32.071Z,99702.50
2022-11-09T01:28:01.710Z,99707.25
2022-11-09T01:30:33.916Z,99710.38
2022-11-09T01:33:03.391Z,99708.41
2022-11-09T01:35:32.762Z,99707.81
2022-11-09T01:38:02.097Z,99717.47
2022-11-09T01:40:31.510Z,99716.94
2022-11-09T01:43:02.085Z,99712.00
2022-11-09T01:45:34.085Z,99711.75
2022-11-09T01:48:05.063Z,99711.75
2022-11-09T01:50:36.305Z,99714.94
2022-11-09T01:53:05.993Z,99720.25
2022-11-09T01:55:35.367Z,99718.88
2022-11-09T01:58:05.565Z,99728.13
2022-11-09T02:00:39.041Z,99718.38
2022-11-09T02:03:09.776Z,99711.50
2022-11-09T02:05:39.613Z,99714.13
2022-11-09T02:08:09.449Z,99705.94
2022-11-09T02:10:40.678Z,99708.31
2022-11-09T02:13:11.157Z,99706.63
2022-11-09T02:15:45.865Z,99703.97
2022-11-09T02:18:15.840Z,99713.13
2022-11-09T02:20:51.386Z,99712.91
2022-11-09T02:23:21.401Z,99704.38
2022-11-09T02:25:52.105Z,99712.25
2022-11-09T02:28:21.937Z,99704.50
2022-11-09T02:30:52.216Z,99711.50
2022-11-09T02:33:22.260Z,99721.38
2022-11-09T02:35:54.480Z,99720.53
2022-11-09T02:38:24.561Z,99709.22
2022-11-09T02:40:54.406Z,99715.66
2022-11-09T02:43:23.791Z,99716.63
2022-11-09T02:45:53.169Z,99710.75
2022-11-09T02:48:23.235Z,99714.59
2022-11-09T02:50:55.333Z,99707.91
2022-11-09T02:53:24.649Z,99711.72
2022-11-09T02:55:54.949Z,99708.06
2022-11-09T02:58:24.381Z,99702.63
2022-11-09T03:00:54.133Z,99697.44
2022-11-09T03:03:26.035Z,99705.41
2022-11-09T03:05:58.108Z,99712.28
2022-11-09T03:08:28.027Z,99713.75
2022-11-09T03:10:57.684Z,99711.56
2022-11-09T03:13:27.216Z,99703.78
2022-11-09T03:15:56.673Z,99710.47
2022-11-09T03:18:26.000Z,99718.97
2022-11-09T03:20:58.026Z,99727.63
2022-11-09T03:23:27.357Z,99729.63
2022-11-09T03:25:56.786Z,99739.06
2022-11-09T03:28:26.294Z,99736.28
2022-11-09T03:30:56.846Z,99729.69
2022-11-09T03:33:26.480Z,99728.16
2022-11-09T03:35:58.530Z,99733.34
2022-11-09T03:38:27.867Z,99745.38
2022-11-09T03:40:58.371Z,99736.56
2022-11-09T03:43:28.017Z,99742.59
2022-11-09T03:45:57.538Z,99742.16
2022-11-09T03:48:26.944Z,99740.59
2022-11-09T03:50:58.871Z,99746.25
2022-11-09T03:53:28.189Z,99752.13
2022-11-09T03:55:59.287Z,99752.78
2022-11-09T03:58:28.596Z,99757.44
2022-11-09T04:00:58.000Z,99757.28
2022-11-09T04:03:27.324Z,99766.03
2022-11-09T04:05:59.251Z,99766.16
2022-11-09T04:08:28.613Z,99770.50
2022-11-09T04:10:58.056Z,99753.00
2022-11-09T04:13:27.375Z,99750.84
2022-11-09T04:15:56.709Z,99748.41
2022-11-09T04:18:26.154Z,99752.78
2022-11-09T04:20:55.515Z,99748.19
2022-11-09T04:23:27.487Z,99746.50
2022-11-09T04:25:56.808Z,99760.75
2022-11-09T04:28:26.189Z,99757.78
2022-11-09T04:30:55.645Z,99754.69
2022-11-09T04:33:24.982Z,99754.69
2022-11-09T04:35:54.362Z,99748.84
2022-11-09T04:38:23.709Z,99738.97
2022-11-09T04:40:55.695Z,99758.13
2022-11-09T04:43:25.036Z,99766.56
2022-11-09T04:45:54.391Z,99770.56
2022-11-09T04:48:23.812Z,99776.69
2022-11-09T04:50:53.126Z,99780.56
2022-11-09T04:53:22.668Z,99778.31
2022-11-09T04:55:52.265Z,99783.31
2022-11-09T04:58:25.136Z,99788.72
2022-11-09T05:00:54.750Z,99800.94
2022-11-09T05:03:24.304Z,99794.78
2022-11-09T05:05:53.654Z,99804.97
2022-11-09T05:08:23.353Z,99801.19
2022-11-09T05:10:52.814Z,99801.06
2022-11-09T05:13:24.735Z,99805.03
2022-11-09T05:15:54.101Z,99804.06
2022-11-09T05:18:23.546Z,99804.91
2022-11-09T05:20:52.852Z,99808.53
2022-11-09T05:23:34.636Z,99811.91
2022-11-09T05:26:04.016Z,99810.94
2022-11-09T05:28:35.961Z,99804.81
2022-11-09T05:31:05.299Z,99805.53
2022-11-09T05:33:34.887Z,99802.13
2022-11-09T05:36:04.311Z,99810.50
2022-11-09T05:38:33.844Z,99807.66
2022-11-09T05:41:03.399Z,99809.03
2022-11-09T05:43:32.763Z,99798.88
2022-11-09T05:46:06.747Z,99802.13
2022-11-09T05:48:36.445Z,99794.72
2022-11-09T05:51:06.300Z,99795.22
2022-11-09T05:53:36.218Z,99805.41
2022-11-09T05:56:06.510Z,99800.22
2022-11-09T05:58:36.468Z,99797.69
2022-11-09T06:01:09.421Z,99797.91
2022-11-09T06:03:39.028Z,99793.91
2022-11-09T06:06:09.354Z,99797.84
2022-11-09T06:08:38.730Z,99793.28
2022-11-09T06:11:18.252Z,99797.91
2022-11-09T06:13:51.066Z,99795.59
2022-11-09T06:16:23.060Z,99796.22
2022-11-09T06:18:52.357Z,99798.88
2022-11-09T06:21:21.932Z,99789.56
2022-11-09T06:23:51.311Z,99802.97
2022-11-09T06:26:20.653Z,99799.28
2022-11-09T06:28:50.028Z,99805.44
2022-11-09T06:31:20.647Z,99805.38
2022-11-09T06:33:52.675Z,99811.13
2022-11-09T06:36:22.243Z,99807.97
2022-11-09T06:38:51.611Z,99813.91
2022-11-09T06:41:21.145Z,99812.75
2022-11-09T06:43:50.497Z,99808.78
2022-11-09T06:46:21.137Z,99809.53
2022-11-09T06:48:54.632Z,99805.94
2022-11-09T06:51:24.201Z,99807.63
2022-11-09T06:53:53.575Z,99814.72
2022-11-09T06:56:23.279Z,99822.16
2022-11-09T06:58:52.635Z,99824.25
2022-11-09T07:01:22.340Z,99826.69
2022-11-09T07:03:54.290Z,99822.25
2022-11-09T07:06:23.618Z,99832.75
2022-11-09T07:08:52.983Z,99834.97
2022-11-09T07:11:22.461Z,99847.13
2022-11-09T07:13:57.084Z,99843.53
2022-11-09T07:16:26.907Z,99845.94
2022-11-09T07:18:58.867Z,99849.25
2022-11-09T07:21:28.217Z,99842.78
2022-11-09T07:23:57.580Z,99857.38
2022-11-09T07:26:27.458Z,99856.03
2022-11-09T07:28:56.807Z,99849.16
2022-11-09T07:31:29.273Z,99862.63
2022-11-09T07:34:04.814Z,99857.53
2022-11-09T07:36:36.663Z,99856.38
2022-11-09T07:39:06.306Z,99865.91
2022-11-09T07:41:35.620Z,99870.56
2022-11-09T07:44:04.950Z,99869.72
2022-11-09T07:46:35.566Z,99865.47
2022-11-09T07:49:07.516Z,99874.28
2022-11-09T07:51:37.522Z,99872.03
2022-11-09T07:54:06.881Z,99870.94
2022-11-09T07:56:36.250Z,99879.25
2022-11-09T07:59:05.651Z,99884.34
2022-11-09T08:01:35.207Z,99885.75
2022-11-09T08:04:07.369Z,99892.75
2022-11-09T08:06:37.084Z,99891.75
2022-11-09T08:09:06.553Z,99890.97
2022-11-09T08:11:35.917Z,99891.28
2022-11-09T08:14:05.284Z,99886.84
2022-11-09T08:16:37.683Z,99883.97
2022-11-09T08:19:10.770Z,99891.91
2022-11-09T08:21:40.179Z,99896.25
2022-11-09T08:24:09.699Z,99892.38
2022-11-09T08:26:39.085Z,99896.44
2022-11-09T08:29:08.484Z,99895.03
2022-11-09T08:31:37.894Z,99907.03
2022-11-09T08:34:13.978Z,99904.41
2022-11-09T08:36:43.365Z,99903.28
2022-11-09T08:39:12.809Z,99897.25
2022-11-09T08:41:42.207Z,99908.19
2022-11-09T08:44:11.529Z,99913.56
2022-11-09T08:46:41.614Z,99908.28
2022-11-09T08:49:13.764Z,99909.69
2022-11-09T08:51:43.065Z,99910.41
2022-11-09T08:54:14.065Z,99913.91
2022-11-09T08:56:43.630Z,99911.88
2022-11-09T08:59:12.949Z,99911.75
2022-11-09T09:01:42.642Z,99920.38
2022-11-09T09:04:14.674Z,99918.13
2022-11-09T09:06:44.076Z,99918.13
2022-11-09T09:09:13.515Z,99923.50
2022-11-09T09:11:42.905Z,99919.59
2022-11-09T09:14:12.267Z,99924.03
2022-11-09T09:16:41.645Z,99918.31
2022-11-09T09:19:10.983Z,99921.41
2022-11-09T09:21:42.953Z,99923.31
2022-11-09T09:24:12.304Z,99923.66
2022-11-09T09:26:41.638Z,99918.13
2022-11-09T09:29:11.787Z,99920.38
2022-11-09T09:31:41.118Z,99931.19
2022-11-09T09:34:11.239Z,99929.50
2022-11-09T09:36:47.581Z,99926.22
2022-11-09T09:39:17.604Z,99914.78
2022-11-09T09:41:49.189Z,99943.13
2022-11-09T09:44:23.697Z,99919.25
2022-11-09T09:46:54.630Z,99919.69
2022-11-09T09:49:25.014Z,99937.81
2022-11-09T09:51:58.170Z,99940.47
2022-11-09T09:54:28.148Z,99942.59
2022-11-09T09:56:58.417Z,99952.53
2022-11-09T09:59:29.813Z,99961.28
2022-11-09T10:01:59.094Z,99958.50
2022-11-09T10:04:30.834Z,99951.16
2022-11-09T10:07:04.939Z,99952.44
2022-11-09T10:09:39.169Z,99951.91
2022-11-09T10:12:11.669Z,99961.28
2022-11-09T10:14:49.033Z,99952.13
2022-11-09T10:17:20.492Z,99965.22
2022-11-09T10:19:54.199Z,99955.22
2022-11-09T10:22:28.699Z,99956.56
2022-11-09T10:25:20.707Z,99950.97
2022-11-09T10:27:50.162Z,99949.38
2022-11-09T10:30:20.485Z,99944.56
2022-11-09T10:32:51.296Z,99960.44
2022-11-09T10:35:22.324Z,99948.84
2022-11-09T10:37:55.100Z,99953.63
2022-11-09T10:40:25.414Z,99953.31
2022-11-09T10:43:13.590Z,99960.13
2022-11-09T10:46:04.973Z,99960.97
2022-11-09T10:48:53.302Z,99962.13
2022-11-09T10:51:42.374Z,99971.88
2022-11-09T10:54:35.143Z,99980.81
2022-11-09T10:57:23.482Z,99979.72
2022-11-09T11:00:17.091Z,99981.44
2022-11-09T11:03:12.625Z,99978.03
2022-11-09T11:06:01.582Z,99985.28
2022-11-09T11:08:50.030Z,99982.94
2022-11-09T11:11:41.012Z,99971.03
2022-11-09T11:14:31.904Z,99981.13
2022-11-09T11:17:26.280Z,99977.19
2022-11-09T11:20:26.598Z,99979.94
2022-11-09T11:23:15.729Z,99984.31
2022-11-09T11:26:09.379Z,99971.03
2022-11-09T11:29:02.357Z,99980.91
2022-11-09T11:31:50.523Z,99982.25
2022-11-09T11:34:59.300Z,99969.63
2022-11-09T11:37:49.312Z,99977.34
2022-11-09T11:40:40.948Z,99976.50
2022-11-09T11:43:31.943Z,99967.78
2022-11-09T11:46:24.107Z,99973.84
2022-11-09T11:49:22.534Z,99968.25
2022-11-09T11:52:11.915Z,99982.44
2022-11-09T11:55:11.196Z,99977.94
2022-11-09T11:58:02.945Z,99978.94
2022-11-09T12:00:52.084Z,99997.53
2022-11-09T12:03:50.316Z,99987.81
2022-11-09T12:06:44.468Z,99985.13
2022-11-09T12:09:36.329Z,99992.41
2022-11-09T12:12:27.128Z,100001.00
2022-11-09T12:15:20.994Z,99983.34
2022-11-09T12:18:12.389Z,99996.19
2022-11-09T12:21:07.856Z,99983.06
2022-11-09T12:24:00.802Z,99977.50
2022-11-09T12:27:11.027Z,99982.63
2022-11-09T12:30:02.229Z,99987.50
2022-11-09T12:32:52.643Z,100002.19
2022-11-09T12:35:41.100Z,99980.94
2022-11-09T12:38:32.502Z,99986.31
2022-11-09T12:41:21.610Z,99980.66
2022-11-09T12:44:17.349Z,100010.88
2022-11-09T12:47:06.291Z,100007.66
2022-11-09T12:49:56.082Z,99977.38
2022-11-09T12:52:44.118Z,99977.75
2022-11-09T12:55:35.517Z,100000.13
2022-11-09T12:58:24.404Z,99994.09
2022-11-09T13:01:13.917Z,99995.66
2022-11-09T13:04:03.136Z,99982.28
2022-11-09T13:07:06.501Z,99992.59
2022-11-09T13:09:56.106Z,99984.19
2022-11-09T13:12:46.653Z,99994.94
2022-11-09T13:15:34.797Z,99999.16
2022-11-09T13:18:26.318Z,100002.47
2022-11-09T13:21:31.851Z,100013.09
2022-11-09T13:24:34.695Z,100005.56
2022-11-09T13:27:37.599Z,100002.59
2022-11-09T13:30:44.206Z,100008.75
2022-11-09T13:33:31.902Z,100009.91
2022-11-09T13:36:20.784Z,100007.78
2022-11-09T13:39:23.565Z,100008.81
2022-11-09T13:42:21.237Z,100023.41
2022-11-09T13:45:24.458Z,100014.16
2022-11-09T13:48:25.703Z,100019.47
2022-11-09T13:51:14.828Z,100023.47
2022-11-09T13:54:03.163Z,100023.47
2022-11-09T13:56:51.132Z,100024.53
2022-11-09T13:59:39.680Z,100034.91
2022-11-09T14:02:28.293Z,100029.28
2022-11-09T14:05:28.438Z,100044.03
2022-11-09T14:08:19.432Z,100041.50
2022-11-09T14:11:10.782Z,100042.06
2022-11-09T14:14:03.348Z,100065.72
2022-11-09T14:16:53.364Z,100062.94
2022-11-09T14:19:47.882Z,100055.50
2022-11-09T14:22:39.130Z,100056.91
2022-11-09T14:25:27.977Z,100067.69
2022-11-09T14:28:22.423Z,100076.63
2022-11-09T14:31:12.472Z,100062.09
2022-11-09T14:34:04.283Z,100072.28
2022-11-09T14:36:52.074Z,100072.50
2022-11-09T14:39:42.826Z,100077.34
2022-11-09T14:42:31.178Z,100079.16
2022-11-09T14:45:19.088Z,100080.41
2022-11-09T14:48:07.562Z,100084.13
2022-11-09T14:50:55.596Z,100094.28
2022-11-09T14:53:44.207Z,100095.97
2022-11-09T14:56:34.571Z,100094.06
2022-11-09T14:59:24.230Z,100105.44
2022-11-09T15:02:12.817Z,100111.50
2022-11-09T15:05:01.877Z,100122.41
2022-11-09T15:07:49.786Z,100120.06
2022-11-09T15:10:37.918Z,100113.75
2022-11-09T15:13:34.253Z,100104.38
2022-11-09T15:16:23.131Z,100107.97
2022-11-09T15:19:22.884Z,100120.72
2022-11-09T15:22:25.743Z,100123.66
2022-11-09T15:25:24.464Z,100130.66
2022-11-09T15:28:35.672Z,100133.72
2022-11-09T15:31:27.918Z,100136.66
2022-11-09T15:34:21.665Z,100148.91
2022-11-09T15:37:21.395Z,100141.31
2022-11-09T15:40:11.711Z,100150.50
2022-11-09T15:42:59.572Z,100165.38
2022-11-09T15:45:47.430Z,100163.84
2022-11-09T15:48:42.034Z,100155.41
2022-11-09T15:51:32.310Z,100151.91
2022-11-09T15:54:20.122Z,100159.34
2022-11-09T15:57:08.115Z,100173.63
2022-11-09T15:59:56.064Z,100179.75
2022-11-09T16:02:45.844Z,100182.41
2022-11-09T16:05:36.386Z,100180.91
2022-11-09T16:08:24.461Z,100181.63
2022-11-09T16:11:12.578Z,100172.09
2022-11-09T16:14:01.712Z,100178.94
2022-11-09T16:16:49.756Z,100184.72
2022-11-09T16:19:39.591Z,100189.63
2022-11-09T16:22:33.410Z,100191.59
2022-11-09T16:25:22.319Z,100188.66
2022-11-09T16:28:10.266Z,100197.84
2022-11-09T16:30:58.176Z,100198.38
2022-11-09T16:33:46.229Z,100205.38
2022-11-09T16:36:34.038Z,100208.59
2022-11-09T16:39:24.492Z,100211.78
2022-11-09T16:42:13.248Z,100210.66
2022-11-09T16:45:01.630Z,100209.94
2022-11-09T16:47:54.051Z,100211.13
2022-11-09T16:50:42.146Z,100219.91
2022-11-09T16:53:30.274Z,100234.22
2022-11-09T16:56:20.837Z,100239.59
2022-11-09T16:59:09.139Z,100235.50
2022-11-09T17:01:58.596Z,100244.13
2022-11-09T17:04:46.675Z,100245.09
2022-11-09T17:07:42.109Z,100248.16
2022-11-09T17:10:30.591Z,100257.81
2022-11-09T17:13:21.041Z,100254.41
2022-11-09T17:16:09.730Z,100257.03
2022-11-09T17:18:57.949Z,100264.97
2022-11-09T17:21:46.104Z,100269.13
2022-11-09T17:24:34.192Z,100280.91
2022-11-09T17:27:22.240Z,100288.50
2022-11-09T17:30:13.473Z,100287.66
2022-11-09T17:33:01.436Z,100306.25
2022-11-09T17:35:49.234Z,100297.28
2022-11-09T17:38:37.109Z,100297.47
2022-11-09T17:41:25.129Z,100299.84
2022-11-09T17:44:13.073Z,100304.66
2022-11-09T17:47:03.508Z,100304.03
2022-11-09T17:49:51.254Z,100314.09
2022-11-09T17:52:39.121Z,100323.22
2022-11-09T17:55:26.919Z,100317.59
2022-11-09T17:58:14.647Z,100325.38
2022-11-09T18:01:07.005Z,100342.00
2022-11-09T18:03:57.834Z,100334.31
2022-11-09T18:06:45.875Z,100340.03
2022-11-09T18:09:42.390Z,100347.66
2022-11-09T18:12:30.546Z,100348.50
2022-11-09T18:15:18.402Z,100358.13
2022-11-09T18:18:06.472Z,100364.34
2022-11-09T18:20:57.108Z,100371.44
2022-11-09T18:23:45.124Z,100370.06
2022-11-09T18:26:34.305Z,100383.13
2022-11-09T18:29:22.525Z,100389.44
2022-11-09T18:32:10.406Z,100393.28
2022-11-09T18:34:58.402Z,100399.75
2022-11-09T18:37:48.822Z,100400.19
2022-11-09T18:40:36.531Z,100399.41
2022-11-09T18:43:24.596Z,100401.22
2022-11-09T18:46:12.826Z,100416.38
2022-11-09T18:49:00.861Z,100418.25
2022-11-09T18:51:48.911Z,100430.34
2022-11-09T18:54:39.440Z,100417.22
2022-11-09T18:57:27.127Z,100433.00
2022-11-09T19:00:15.637Z,100434.19
2022-11-09T19:03:03.784Z,100433.25
2022-11-09T19:05:51.496Z,100438.63
2022-11-09T19:08:52.029Z,100439.84
2022-11-09T19:11:42.677Z,100442.72
2022-11-09T19:14:30.919Z,100442.28
2022-11-09T19:17:18.909Z,100443.94
2022-11-09T19:20:07.120Z,100445.56
2022-11-09T19:22:54.948Z,100451.00
2022-11-09T19:25:42.632Z,100454.59
2022-11-09T19:28:33.008Z,100453.13
2022-11-09T19:31:21.789Z,100462.50
2022-11-09T19:34:09.676Z,100460.13
2022-11-09T19:36:57.681Z,100467.34
2022-11-09T19:39:47.698Z,100478.84
2022-11-09T19:42:35.543Z,100476.91
2022-11-09T19:45:26.168Z,100488.72
2022-11-09T19:48:14.313Z,100481.50
2022-11-09T19:51:02.337Z,100478.00
2022-11-09T19:53:53.852Z,100488.56
2022-11-09T19:56:41.959Z,100495.91
2022-11-09T19:59:29.699Z,100494.94
2022-11-09T20:02:20.171Z,100505.06
2022-11-09T20:05:09.220Z,100516.03
2022-11-09T20:07:57.255Z,100514.19
2022-11-09T20:10:45.131Z,100517.03
2022-11-09T20:13:30.273Z,100519.94
2022-11-09T20:16:18.090Z,100524.28
2022-11-09T20:19:09.390Z,100536.06
2022-11-09T20:21:57.487Z,100534.41
2022-11-09T20:24:45.322Z,100545.91
2022-11-09T20:27:33.209Z,100549.41
2022-11-09T20:30:21.457Z,100551.16
2022-11-09T20:33:09.679Z,100560.56
2022-11-09T20:36:00.325Z,100563.34
2022-11-09T20:38:48.707Z,100571.56
2022-11-09T20:41:36.496Z,100575.00
2022-11-09T20:44:24.374Z,100567.91
2022-11-09T20:47:12.382Z,100569.06
2022-11-09T20:50:00.226Z,100575.16
2022-11-09T20:52:51.849Z,100582.75
2022-11-09T20:55:40.240Z,100583.00
2022-11-09T20:58:29.275Z,100581.31
2022-11-09T21:01:18.238Z,100589.47
2022-11-09T21:04:06.536Z,100593.97
2022-11-09T21:06:54.745Z,100600.03
2022-11-09T21:09:45.401Z,100611.59
2022-11-09T21:12:33.215Z,100619.53
2022-11-09T21:15:21.201Z,100616.16
2022-11-09T21:18:09.707Z,100617.75
2022-11-09T21:20:57.865Z,100629.44
2022-11-09T21:23:58.223Z,100625.94
2022-11-09T21:27:01.297Z,100625.50
2022-11-09T21:29:54.773Z,100630.72
2022-11-09T21:32:42.458Z,100635.25
2022-11-09T21:35:29.997Z,100643.31
2022-11-09T21:38:17.705Z,100634.53
2022-11-09T21:41:26.238Z,100638.97
2022-11-09T21:44:16.846Z,100636.34
2022-11-09T21:47:04.934Z,100638.91
2022-11-09T21:49:52.622Z,100636.25
2022-11-09T21:52:40.552Z,100649.44
2022-11-09T21:55:28.376Z,100636.91
2022-11-09T21:58:16.183Z,100645.88
2022-11-09T22:01:07.154Z,100644.91
2022-11-09T22:03:54.968Z,100644.91
2022-11-09T22:06:44.058Z,100659.06
2022-11-09T22:09:50.657Z,100672.19
2022-11-09T22:12:52.916Z,100660.94
2022-11-09T22:15:54.070Z,100664.25
2022-11-09T22:18:56.949Z,100666.06
2022-11-09T22:21:44.993Z,100661.25
2022-11-09T22:24:33.032Z,100654.66
2022-11-09T22:27:20.843Z,100667.31
2022-11-09T22:30:09.975Z,100663.47
2022-11-09T22:32:57.694Z,100661.38
2022-11-09T22:35:48.161Z,100668.38
2022-11-09T22:38:36.109Z,100665.88
2022-11-09T22:41:24.644Z,100667.06
2022-11-09T22:44:13.092Z,100677.63
2022-11-09T22:47:01.127Z,100671.69
2022-11-09T22:49:49.040Z,100680.47
2022-11-09T22:52:39.597Z,100677.09
2022-11-09T22:55:27.405Z,100691.22
2022-11-09T22:58:15.454Z,100697.28
2022-11-09T23:01:07.503Z,100704.44
2022-11-09T23:03:55.507Z,100708.09
2022-11-09T23:06:43.310Z,100708.91
2022-11-09T23:09:33.668Z,100710.72
2022-11-09T23:12:21.553Z,100715.84
2022-11-09T23:15:13.253Z,100722.69
2022-11-09T23:18:13.826Z,100729.81
2022-11-09T23:21:02.222Z,100731.00
2022-11-09T23:23:50.217Z,100726.47
2022-11-09T23:26:40.519Z,100727.50
2022-11-09T23:29:28.341Z,100735.56
2022-11-09T23:32:16.089Z,100737.81
2022-11-09T23:35:03.909Z,100734.88
2022-11-09T23:37:52.566Z,100748.09
2022-11-09T23:40:40.599Z,100752.41
2022-11-09T23:43:30.971Z,100764.97
2022-11-09T23:46:18.738Z,100771.97
2022-11-09T23:49:06.592Z,100773.69
2022-11-09T23:51:54.428Z,100777.81
2022-11-09T23:54:42.378Z,100780.34
2022-11-09T23:57:30.622Z,100783.16
